Terminal Aerodrome Forecast
Issued by NWS Kansas City/Pleasant Hill, MO

Home | Current Version | Previous Version | Text Only | Print | Product List | Glossary On
Versions: 1 2 3 4 5 6 7 8 9 10 11 12 13 14 15 16 17
000
FTUS43 KEAX 211738
TAFMCI
TAF
KMCI 211738Z 2118/2218 17008KT 6SM BR SCT020 BKN025
      TEMPO 2118/2122 SCT025
     FM220000 15007KT 6SM -SHRA VCTS OVC015CB
     FM220700 17009KT P6SM SCT015
     FM221200 20009KT 3SM -DZ VCSH BKN010=

USA.gov is the U.S. government's official web portal to all federal, state and local government web resources and services.